createdAt,value
2019-04-01T00:01:41.223Z,4.59
2019-04-01T00:04:48.910Z,4.40
2019-04-01T00:07:56.529Z,4.17
2019-04-01T00:11:04.432Z,4.06
2019-04-01T00:14:11.812Z,4.47
2019-04-01T00:17:19.504Z,4.09
2019-04-01T00:20:27.178Z,3.78
2019-04-01T00:23:34.656Z,3.65
2019-04-01T00:26:42.050Z,3.34
2019-04-01T00:29:49.682Z,3.19
2019-04-01T00:32:57.412Z,3.20
2019-04-01T00:36:05.498Z,3.28
2019-04-01T00:39:12.816Z,3.44
2019-04-01T00:42:28.714Z,3.51
2019-04-01T00:45:37.872Z,3.66
2019-04-01T00:48:45.237Z,3.58
2019-04-01T00:51:53.056Z,3.46
2019-04-01T00:55:00.451Z,3.35
2019-04-01T00:58:08.075Z,3.34
2019-04-01T01:01:15.618Z,3.61
2019-04-01T01:04:23.422Z,3.95
2019-04-01T01:07:31.115Z,3.63
2019-04-01T01:10:38.532Z,3.29
2019-04-01T01:13:46.233Z,3.15
2019-04-01T01:16:53.788Z,3.13
2019-04-01T01:20:01.615Z,3.06
2019-04-01T01:23:09.375Z,3.07
2019-04-01T01:26:16.820Z,3.19
2019-04-01T01:29:24.742Z,3.39
2019-04-01T01:32:32.298Z,3.57
2019-04-01T01:35:39.720Z,3.47
2019-04-01T01:38:47.174Z,3.17
2019-04-01T01:41:54.796Z,2.92
2019-04-01T01:45:02.835Z,2.64
2019-04-01T01:48:10.512Z,2.49
2019-04-01T01:51:18.204Z,2.40
2019-04-01T01:54:25.811Z,2.25
2019-04-01T01:57:33.434Z,2.07
2019-04-01T02:00:41.111Z,2.00
2019-04-01T02:03:48.473Z,2.09
2019-04-01T02:06:56.095Z,2.19
2019-04-01T02:10:03.930Z,2.31
2019-04-01T02:13:11.388Z,2.49
2019-04-01T02:16:18.817Z,2.87
2019-04-01T02:19:26.097Z,2.85
2019-04-01T02:22:33.500Z,2.55
2019-04-01T02:25:40.881Z,2.44
2019-04-01T02:28:48.256Z,2.23
2019-04-01T02:31:56.038Z,2.27
2019-04-01T02:35:03.640Z,2.24
2019-04-01T02:38:11.822Z,2.26
2019-04-01T02:41:19.588Z,2.41
2019-04-01T02:44:27.280Z,3.00
2019-04-01T02:47:35.086Z,2.48
2019-04-01T02:53:57.738Z,2.18
2019-04-01T02:57:04.915Z,2.03
2019-04-01T03:00:12.796Z,1.66
2019-04-01T03:03:20.192Z,1.50
2019-04-01T03:06:27.489Z,1.69
2019-04-01T03:09:34.794Z,1.82
2019-04-01T03:12:42.081Z,2.15
2019-04-01T03:15:49.256Z,2.13
2019-04-01T03:18:56.827Z,2.31
2019-04-01T03:22:04.150Z,2.07
2019-04-01T03:25:11.859Z,2.02
2019-04-01T03:28:19.028Z,1.98
2019-04-01T03:31:26.475Z,1.93
2019-04-01T03:34:34.230Z,2.01
2019-04-01T03:37:41.533Z,2.06
2019-04-01T03:40:48.814Z,2.27
2019-04-01T03:43:56.306Z,2.61
2019-04-01T03:47:03.813Z,2.69
2019-04-01T03:50:11.490Z,2.57
2019-04-01T03:53:19.039Z,2.29
2019-04-01T03:56:26.301Z,2.05
2019-04-01T03:59:34.591Z,1.71
2019-04-01T04:02:42.299Z,1.60
2019-04-01T04:05:50.078Z,1.36
2019-04-01T04:09:01.633Z,1.16
2019-04-01T04:12:07.386Z,1.18
2019-04-01T04:15:14.874Z,1.13
2019-04-01T04:18:22.615Z,1.23
2019-04-01T04:21:30.607Z,1.68
2019-04-01T04:24:38.085Z,1.72
2019-04-01T04:27:45.737Z,1.80
2019-04-01T04:30:53.271Z,1.79
2019-04-01T04:34:04.695Z,1.72
2019-04-01T04:37:12.162Z,1.84
2019-04-01T04:40:19.752Z,1.92
2019-04-01T04:43:26.960Z,1.99
2019-04-01T04:46:34.582Z,2.08
2019-04-01T04:49:42.052Z,1.87
2019-04-01T04:52:49.345Z,1.97
2019-04-01T04:55:56.706Z,1.75
2019-04-01T04:59:04.379Z,1.67
2019-04-01T05:02:11.866Z,1.67
2019-04-01T05:05:19.735Z,1.76
2019-04-01T05:08:27.411Z,1.80
2019-04-01T05:11:34.863Z,2.02
2019-04-01T05:14:42.268Z,2.10
2019-04-01T05:17:49.736Z,2.28
2019-04-01T05:20:59.066Z,2.61
2019-04-01T05:24:07.582Z,2.79
2019-04-01T05:27:20.797Z,2.92
2019-04-01T05:30:32.596Z,3.17
2019-04-01T05:33:54.867Z,3.13
2019-04-01T05:36:55.578Z,2.89
2019-04-01T05:40:04.739Z,2.70
2019-04-01T05:43:12.230Z,2.68
2019-04-01T05:46:19.994Z,2.93
2019-04-01T05:49:27.721Z,3.01
2019-04-01T05:52:35.427Z,3.07
2019-04-01T05:55:43.281Z,3.15
2019-04-01T05:58:50.817Z,3.32
2019-04-01T06:01:58.211Z,3.64
2019-04-01T06:05:06.442Z,4.28
2019-04-01T06:08:13.930Z,4.94
2019-04-01T06:11:21.378Z,5.63
2019-04-01T06:14:29.310Z,6.41
2019-04-01T06:17:37.117Z,7.19
2019-04-01T06:20:45.535Z,7.77
2019-04-01T06:23:53.123Z,8.32
2019-04-01T06:27:00.612Z,8.60
2019-04-01T06:30:08.546Z,8.34
2019-04-01T06:33:16.007Z,8.54
2019-04-01T06:36:23.421Z,8.38
2019-04-01T06:39:30.806Z,8.34
2019-04-01T06:42:38.628Z,8.48
2019-04-01T06:45:46.175Z,8.66
2019-04-01T06:48:53.714Z,9.31
2019-04-01T06:52:01.502Z,9.79
2019-04-01T06:55:08.996Z,10.09
2019-04-01T06:58:17.323Z,9.92
2019-04-01T07:01:27.284Z,9.51
2019-04-01T07:04:36.344Z,9.80
2019-04-01T07:07:45.148Z,10.16
2019-04-01T07:10:55.358Z,9.87
2019-04-01T07:14:04.208Z,9.89
2019-04-01T07:17:15.071Z,10.09
2019-04-01T07:20:24.916Z,10.37
2019-04-01T07:23:32.620Z,9.92
2019-04-01T07:26:40.145Z,9.98
2019-04-01T07:29:47.737Z,10.37
2019-04-01T07:32:55.763Z,10.63
2019-04-01T07:36:03.143Z,10.07
2019-04-01T07:39:10.563Z,10.76
2019-04-01T07:42:18.661Z,10.57
2019-04-01T07:45:26.606Z,11.46
2019-04-01T07:48:34.498Z,11.49
2019-04-01T07:51:42.531Z,11.85
2019-04-01T07:54:50.099Z,11.73
2019-04-01T07:57:59.872Z,11.89
2019-04-01T08:01:07.811Z,11.78
2019-04-01T08:04:30.484Z,11.86
2019-04-01T08:07:39.782Z,11.99
2019-04-01T08:10:47.388Z,11.66
2019-04-01T08:13:55.435Z,11.06
2019-04-01T08:17:02.945Z,10.80
2019-04-01T08:20:10.799Z,11.00
2019-04-01T08:23:18.541Z,10.93
2019-04-01T08:26:26.498Z,11.00
2019-04-01T08:29:34.028Z,11.83
2019-04-01T08:32:41.590Z,11.99
2019-04-01T08:35:49.255Z,11.79
2019-04-01T08:38:56.818Z,11.54
2019-04-01T08:42:04.330Z,11.72
2019-04-01T08:45:11.821Z,11.93
2019-04-01T08:48:19.585Z,11.91
2019-04-01T08:51:27.023Z,13.09
2019-04-01T08:54:34.603Z,13.41
2019-04-01T08:57:42.075Z,13.50
2019-04-01T09:00:49.918Z,13.65
2019-04-01T09:03:58.063Z,12.66
2019-04-01T09:07:05.490Z,13.17
2019-04-01T09:10:13.932Z,12.27
2019-04-01T09:13:22.448Z,12.49
2019-04-01T09:16:31.257Z,13.07
2019-04-01T09:19:38.800Z,12.75
2019-04-01T09:22:46.714Z,12.93
2019-04-01T09:25:54.193Z,13.16
2019-04-01T09:29:01.720Z,12.89
2019-04-01T09:32:09.511Z,12.92
2019-04-01T09:35:17.114Z,13.10
2019-04-01T09:38:25.936Z,13.42
2019-04-01T09:41:33.660Z,13.78
2019-04-01T09:44:41.636Z,14.03
2019-04-01T09:47:49.128Z,14.28
2019-04-01T09:50:56.544Z,14.20
2019-04-01T09:54:04.299Z,14.19
2019-04-01T09:57:17.920Z,13.76
2019-04-01T10:00:22.033Z,13.86
2019-04-01T10:03:29.497Z,13.87
2019-04-01T10:06:37.020Z,13.37
2019-04-01T10:09:44.379Z,13.21
2019-04-01T10:12:52.134Z,13.06
2019-04-01T10:15:59.690Z,13.37
2019-04-01T10:19:07.532Z,13.62
2019-04-01T10:22:15.125Z,13.96
2019-04-01T10:25:22.814Z,13.45
2019-04-01T10:28:32.130Z,13.72
2019-04-01T10:31:39.607Z,13.93
2019-04-01T10:34:47.203Z,14.02
2019-04-01T10:37:54.688Z,14.06
2019-04-01T10:41:02.181Z,14.32
2019-04-01T10:44:09.995Z,14.05
2019-04-01T10:47:17.650Z,14.48
2019-04-01T10:50:25.469Z,14.78
2019-04-01T10:53:32.821Z,14.66
2019-04-01T10:56:40.109Z,14.43
2019-04-01T10:59:47.522Z,14.33
2019-04-01T11:02:54.833Z,14.26
2019-04-01T11:06:02.729Z,14.31
2019-04-01T11:09:10.954Z,14.61
2019-04-01T11:12:18.699Z,15.01
2019-04-01T11:15:26.322Z,15.35
2019-04-01T11:18:34.103Z,15.37
2019-04-01T11:21:41.894Z,14.97
2019-04-01T11:24:49.667Z,15.00
2019-04-01T11:27:56.989Z,15.31
2019-04-01T11:31:04.386Z,15.15
2019-04-01T11:34:12.855Z,14.79
2019-04-01T11:37:20.097Z,14.89
2019-04-01T11:40:27.684Z,15.25
2019-04-01T11:43:35.742Z,15.38
2019-04-01T11:46:43.642Z,14.96
2019-04-01T11:49:51.256Z,14.93
2019-04-01T11:52:58.972Z,14.93
2019-04-01T11:56:06.373Z,14.62
2019-04-01T11:59:13.722Z,14.72
2019-04-01T12:02:21.597Z,14.93
2019-04-01T12:05:29.916Z,14.98
2019-04-01T12:08:37.195Z,14.70
2019-04-01T12:11:44.553Z,14.48
2019-04-01T12:14:52.046Z,14.19
2019-04-01T12:17:59.468Z,14.21
2019-04-01T12:21:08.263Z,14.34
2019-04-01T12:24:16.017Z,14.37
2019-04-01T12:27:23.822Z,14.66
2019-04-01T12:30:31.330Z,14.47
2019-04-01T12:33:38.878Z,14.37
2019-04-01T12:36:46.102Z,14.33
2019-04-01T12:39:53.819Z,14.37
2019-04-01T12:43:01.811Z,14.60
2019-04-01T12:46:09.590Z,14.68
2019-04-01T12:49:17.309Z,14.82
2019-04-01T12:52:24.589Z,14.90
2019-04-01T12:55:31.854Z,14.79
2019-04-01T12:58:39.395Z,14.81
2019-04-01T13:01:47.001Z,14.78
2019-04-01T13:04:54.698Z,14.92
2019-04-01T13:08:02.071Z,14.76
2019-04-01T13:11:10.147Z,14.76
2019-04-01T13:14:17.752Z,14.84
2019-04-01T13:17:25.013Z,14.92
2019-04-01T13:20:38.152Z,14.79
2019-04-01T13:23:41.709Z,14.78
2019-04-01T13:26:50.893Z,14.73
2019-04-01T13:29:58.659Z,14.63
2019-04-01T13:33:06.275Z,14.76
2019-04-01T13:36:13.877Z,14.97
2019-04-01T13:39:21.771Z,15.04
2019-04-01T13:42:29.666Z,15.13
2019-04-01T13:45:37.164Z,15.15
2019-04-01T13:48:56.973Z,15.19
2019-04-01T13:51:53.991Z,15.04
2019-04-01T13:55:02.039Z,14.99
2019-04-01T13:58:10.503Z,14.84
2019-04-01T14:01:18.236Z,14.94
2019-04-01T14:04:27.335Z,14.97
2019-04-01T14:07:35.107Z,15.11
2019-04-01T14:10:42.608Z,15.18
2019-04-01T14:13:50.610Z,15.07
2019-04-01T14:16:58.175Z,15.14
2019-04-01T14:20:06.687Z,15.17
2019-04-01T14:23:14.699Z,15.11
2019-04-01T14:26:22.206Z,15.35
2019-04-01T14:29:29.623Z,15.28
2019-04-01T14:32:37.406Z,15.21
2019-04-01T14:35:45.300Z,15.23
2019-04-01T14:38:52.675Z,15.21
2019-04-01T14:41:59.934Z,15.16
2019-04-01T14:45:10.380Z,15.23
2019-04-01T14:48:18.013Z,15.29
2019-04-01T14:54:41.219Z,15.44
2019-04-01T14:57:48.661Z,15.37
2019-04-01T15:00:56.159Z,15.32
2019-04-01T15:04:05.289Z,15.36
2019-04-01T15:07:14.054Z,15.43
2019-04-01T15:10:23.028Z,15.28
2019-04-01T15:13:30.230Z,15.18
2019-04-01T15:16:37.899Z,15.17
2019-04-01T15:19:48.524Z,15.24
2019-04-01T15:22:56.024Z,15.14
2019-04-01T15:26:04.065Z,15.24
2019-04-01T15:29:11.580Z,15.13
2019-04-01T15:32:19.453Z,15.05
2019-04-01T15:35:27.146Z,15.02
2019-04-01T15:38:34.995Z,14.92
2019-04-01T15:41:43.241Z,14.87
2019-04-01T15:44:51.055Z,14.91
2019-04-01T15:47:59.601Z,14.94
2019-04-01T15:51:07.937Z,14.92
2019-04-01T15:54:16.210Z,14.98
2019-04-01T15:57:24.714Z,14.97
2019-04-01T16:00:32.793Z,14.92
2019-04-01T16:03:41.315Z,14.80
2019-04-01T16:06:48.940Z,14.81
2019-04-01T16:09:56.525Z,14.73
2019-04-01T16:13:04.202Z,14.68
2019-04-01T16:16:14.275Z,14.83
2019-04-01T16:19:20.681Z,14.67
2019-04-01T16:22:28.021Z,14.76
2019-04-01T16:25:37.599Z,14.67
2019-04-01T16:28:45.379Z,14.62
2019-04-01T16:31:55.425Z,14.61
2019-04-01T16:35:03.952Z,14.53
2019-04-01T16:38:11.784Z,14.43
2019-04-01T16:41:19.781Z,14.43
2019-04-01T16:44:27.379Z,14.42
2019-04-01T16:47:34.877Z,14.37
2019-04-01T16:50:42.401Z,14.32
2019-04-01T16:53:49.911Z,14.13
2019-04-01T16:56:57.367Z,14.11
2019-04-01T17:00:08.378Z,14.09
2019-04-01T17:03:16.447Z,13.91
2019-04-01T17:06:23.962Z,13.83
2019-04-01T17:09:31.754Z,13.77
2019-04-01T17:12:39.744Z,13.65
2019-04-01T17:15:48.898Z,13.47
2019-04-01T17:18:57.808Z,13.39
2019-04-01T17:22:05.907Z,13.24
2019-04-01T17:25:14.446Z,13.12
2019-04-01T17:28:22.012Z,13.01
2019-04-01T17:31:29.885Z,12.73
2019-04-01T17:34:37.687Z,12.62
2019-04-01T17:37:46.001Z,12.44
2019-04-01T17:40:53.759Z,12.38
2019-04-01T17:44:01.712Z,12.21
2019-04-01T17:47:09.414Z,12.06
2019-04-01T17:50:17.012Z,11.93
2019-04-01T17:53:25.008Z,11.65
2019-04-01T17:56:33.074Z,11.50
2019-04-01T17:59:41.593Z,11.43
2019-04-01T18:02:50.245Z,11.24
2019-04-01T18:05:58.223Z,11.03
2019-04-01T18:09:07.009Z,10.78
2019-04-01T18:12:15.980Z,10.57
2019-04-01T18:15:26.263Z,10.50
2019-04-01T18:18:36.096Z,10.25
2019-04-01T18:21:47.111Z,10.14
2019-04-01T18:24:55.700Z,10.05
2019-04-01T18:28:05.415Z,9.88
2019-04-01T18:31:13.731Z,9.80
2019-04-01T18:34:23.218Z,9.75
2019-04-01T18:37:31.732Z,9.66
2019-04-01T18:40:39.662Z,9.53
2019-04-01T18:43:48.690Z,9.44
2019-04-01T18:46:57.957Z,9.28
2019-04-01T18:50:08.082Z,9.20
2019-04-01T18:53:15.513Z,9.12
2019-04-01T18:56:23.511Z,9.03
2019-04-01T18:59:34.577Z,9.02
2019-04-01T19:02:42.574Z,8.89
2019-04-01T19:05:50.570Z,8.77
2019-04-01T19:09:08.745Z,8.68
2019-04-01T19:12:10.925Z,8.57
2019-04-01T19:15:19.219Z,8.59
2019-04-01T19:18:27.446Z,8.47
2019-04-01T19:21:36.984Z,8.39
2019-04-01T19:25:23.226Z,8.31
2019-04-01T19:28:35.947Z,8.24
2019-04-01T19:32:14.581Z,8.15
2019-04-01T19:35:27.272Z,8.06
2019-04-01T19:38:43.758Z,7.99
2019-04-01T19:41:51.954Z,7.91
2019-04-01T19:45:04.616Z,7.82
2019-04-01T19:48:15.963Z,7.82
2019-04-01T19:51:24.180Z,7.76
2019-04-01T19:54:43.282Z,7.63
2019-04-01T19:57:53.122Z,7.54
2019-04-01T20:01:05.718Z,7.45
2019-04-01T20:04:14.823Z,7.41
2019-04-01T20:07:26.481Z,7.37
2019-04-01T20:10:37.806Z,7.29
2019-04-01T20:13:46.390Z,7.15
2019-04-01T20:17:09.991Z,7.06
2019-04-01T20:20:14.721Z,6.99
2019-04-01T20:23:23.434Z,6.94
2019-04-01T20:26:34.559Z,6.80
2019-04-01T20:29:48.279Z,6.72
2019-04-01T20:32:59.156Z,6.71
2019-04-01T20:36:09.389Z,6.72
2019-04-01T20:39:19.786Z,6.67
2019-04-01T20:42:34.247Z,6.58
2019-04-01T20:45:42.860Z,6.49
2019-04-01T20:48:50.894Z,6.53
2019-04-01T20:51:58.522Z,6.38
2019-04-01T20:55:06.909Z,6.34
2019-04-01T20:58:14.685Z,6.31
2019-04-01T21:01:22.850Z,6.23
2019-04-01T21:04:30.715Z,6.16
2019-04-01T21:07:38.143Z,6.09
2019-04-01T21:10:45.615Z,6.04
2019-04-01T21:13:53.451Z,5.98
2019-04-01T21:17:06.203Z,5.91
2019-04-01T21:20:14.889Z,5.83
2019-04-01T21:23:22.212Z,5.78
2019-04-01T21:26:29.677Z,5.71
2019-04-01T21:29:37.324Z,5.71
2019-04-01T21:32:45.323Z,5.60
2019-04-01T21:35:53.185Z,5.50
2019-04-01T21:39:01.289Z,5.53
2019-04-01T21:42:09.257Z,5.49
2019-04-01T21:45:16.906Z,5.53
2019-04-01T21:48:24.621Z,5.57
2019-04-01T21:51:33.166Z,5.48
2019-04-01T21:54:41.182Z,5.41
2019-04-01T21:57:48.737Z,5.43
2019-04-01T22:00:57.052Z,5.32
2019-04-01T22:04:04.622Z,5.28
2019-04-01T22:07:12.215Z,5.29
2019-04-01T22:10:19.824Z,5.33
2019-04-01T22:13:27.507Z,5.29
2019-04-01T22:16:35.559Z,5.13
2019-04-01T22:19:43.254Z,5.02
2019-04-01T22:22:50.656Z,4.99
2019-04-01T22:25:58.915Z,4.97
2019-04-01T22:29:07.087Z,4.96
2019-04-01T22:32:14.473Z,4.89
2019-04-01T22:35:22.182Z,4.90
2019-04-01T22:38:29.655Z,5.30
2019-04-01T22:41:37.051Z,4.96
2019-04-01T22:44:44.695Z,4.75
2019-04-01T22:47:52.788Z,4.63
2019-04-01T22:51:00.036Z,4.53
2019-04-01T22:54:07.589Z,4.49
2019-04-01T22:57:15.472Z,4.58
2019-04-01T23:00:23.050Z,4.55
2019-04-01T23:03:31.085Z,4.68
2019-04-01T23:06:38.934Z,4.65
2019-04-01T23:09:46.355Z,4.95
2019-04-01T23:12:54.386Z,4.70
2019-04-01T23:16:01.992Z,4.56
2019-04-01T23:19:09.375Z,4.44
2019-04-01T23:22:16.761Z,4.79
2019-04-01T23:25:25.244Z,4.85
2019-04-01T23:28:33.541Z,4.57
2019-04-01T23:31:40.998Z,4.41
2019-04-01T23:34:48.384Z,4.34
2019-04-01T23:37:56.499Z,4.22
2019-04-01T23:41:04.052Z,4.17
2019-04-01T23:44:11.699Z,4.13
2019-04-01T23:47:19.234Z,4.10
2019-04-01T23:50:26.421Z,4.06
2019-04-01T23:53:34.406Z,4.14
2019-04-01T23:56:42.093Z,4.55
2019-04-01T23:59:49.809Z,4.26
